Terminal Aerodrome Forecast
Issued by NWS Houston/Galveston, TX

Home | Current Version | Previous Version | Text Only | Print | Product List | Glossary On
Versions: 1 2 3 4 5 6 7 8 9 10 11 12 13 14 15 16 17 18 19 20 21 22 23 24 25 26 27 28 29 30 31 32 33 34 35 36 37 38 39 40 41 42 43 44 45 46 47 48 49 50
832
FTUS44 KHGX 251604 AAF
TAFCLL
TAF AMD
KCLL 251604Z 2516/2612 08012KT P6SM VCSH SCT015 SCT030
      TEMPO 2516/2517 BKN030
     FM251900 07007KT P6SM VCTS SCT015 BKN040CB
     FM260000 07007KT P6SM BKN050 BKN120
     FM260900 09003KT P6SM SCT015=

USA.gov is the U.S. government's official web portal to all federal, state and local government web resources and services.